sensor_id;sensor_type;location;lat;lon;timestamp;temperature;humidity
935;DHT22;454;53.254;10.400;2024-03-25T05:02:30;5.50;99.90
935;DHT22;454;53.254;10.400;2024-03-25T05:04:56;5.60;99.90
935;DHT22;454;53.254;10.400;2024-03-25T05:07:22;5.60;99.90
935;DHT22;454;53.254;10.400;2024-03-25T05:09:48;5.60;99.90
935;DHT22;454;53.254;10.400;2024-03-25T05:12:14;5.60;99.90
935;DHT22;454;53.254;10.400;2024-03-25T05:14:40;5.60;99.90
935;DHT22;454;53.254;10.400;2024-03-25T05:17:05;5.60;99.90
935;DHT22;454;53.254;10.400;2024-03-25T05:19:33;5.60;99.90
935;DHT22;454;53.254;10.400;2024-03-25T05:21:58;5.60;99.90
935;DHT22;454;53.254;10.400;2024-03-25T05:24:24;5.70;99.90
935;DHT22;454;53.254;10.400;2024-03-25T05:26:50;5.70;99.90
935;DHT22;454;53.254;10.400;2024-03-25T05:29:16;5.70;99.90
935;DHT22;454;53.254;10.400;2024-03-25T05:31:56;5.70;99.90
935;DHT22;454;53.254;10.400;2024-03-25T05:34:22;5.70;99.90
935;DHT22;454;53.254;10.400;2024-03-25T05:36:49;5.70;99.90
935;DHT22;454;53.254;10.400;2024-03-25T05:39:15;5.70;99.90
935;DHT22;454;53.254;10.400;2024-03-25T05:41:40;5.70;99.90
935;DHT22;454;53.254;10.400;2024-03-25T05:44:06;5.70;99.90
935;DHT22;454;53.254;10.400;2024-03-25T05:46:32;5.70;99.90
935;DHT22;454;53.254;10.400;2024-03-25T05:49:01;5.70;99.90
935;DHT22;454;53.254;10.400;2024-03-25T05:51:27;5.80;99.90
935;DHT22;454;53.254;10.400;2024-03-25T05:53:54;5.70;99.90
935;DHT22;454;53.254;10.400;2024-03-25T05:56:20;5.70;99.90
935;DHT22;454;53.254;10.400;2024-03-25T05:58:46;5.60;99.90
935;DHT22;454;53.254;10.400;2024-03-25T06:01:12;5.60;99.90
935;DHT22;454;53.254;10.400;2024-03-25T06:03:38;5.60;99.90
935;DHT22;454;53.254;10.400;2024-03-25T06:06:04;5.60;99.90
935;DHT22;454;53.254;10.400;2024-03-25T06:08:30;5.60;99.90
935;DHT22;454;53.254;10.400;2024-03-25T06:11:00;5.60;99.90
935;DHT22;454;53.254;10.400;2024-03-25T06:13:26;5.60;99.90
935;DHT22;454;53.254;10.400;2024-03-25T06:15:52;5.60;99.90
935;DHT22;454;53.254;10.400;2024-03-25T06:18:19;5.60;99.90
935;DHT22;454;53.254;10.400;2024-03-25T06:20:45;5.60;99.90
935;DHT22;454;53.254;10.400;2024-03-25T06:23:11;5.60;99.90
935;DHT22;454;53.254;10.400;2024-03-25T06:25:47;5.60;99.90
935;DHT22;454;53.254;10.400;2024-03-25T06:28:14;5.60;99.90
935;DHT22;454;53.254;10.400;2024-03-25T06:30:40;5.70;99.90
935;DHT22;454;53.254;10.400;2024-03-25T06:33:24;5.70;99.90
935;DHT22;454;53.254;10.400;2024-03-25T06:36:08;5.70;99.90
935;DHT22;454;53.254;10.400;2024-03-25T06:38:34;5.80;99.90
935;DHT22;454;53.254;10.400;2024-03-25T06:40:59;5.70;99.90
935;DHT22;454;53.254;10.400;2024-03-25T06:43:27;5.80;99.90
935;DHT22;454;53.254;10.400;2024-03-25T06:45:52;5.80;99.90
935;DHT22;454;53.254;10.400;2024-03-25T06:48:18;5.90;99.90
935;DHT22;454;53.254;10.400;2024-03-25T06:50:52;6.00;99.90
935;DHT22;454;53.254;10.400;2024-03-25T06:53:18;6.10;99.90
935;DHT22;454;53.254;10.400;2024-03-25T06:55:51;6.10;99.90
935;DHT22;454;53.254;10.400;2024-03-25T06:58:17;6.20;99.90
935;DHT22;454;53.254;10.400;2024-03-25T07:00:44;6.20;99.90
935;DHT22;454;53.254;10.400;2024-03-25T07:03:10;6.20;99.90
935;DHT22;454;53.254;10.400;2024-03-25T07:05:36;6.20;99.90
935;DHT22;454;53.254;10.400;2024-03-25T07:08:02;6.20;99.90
935;DHT22;454;53.254;10.400;2024-03-25T07:10:28;6.20;99.90
935;DHT22;454;53.254;10.400;2024-03-25T07:12:54;6.30;99.90
935;DHT22;454;53.254;10.400;2024-03-25T07:15:19;6.40;99.90
935;DHT22;454;53.254;10.400;2024-03-25T07:17:47;6.50;99.90
935;DHT22;454;53.254;10.400;2024-03-25T07:20:13;6.50;99.90
935;DHT22;454;53.254;10.400;2024-03-25T07:22:39;6.60;99.90
935;DHT22;454;53.254;10.400;2024-03-25T07:25:05;6.60;99.90
935;DHT22;454;53.254;10.400;2024-03-25T07:27:31;6.60;99.90
935;DHT22;454;53.254;10.400;2024-03-25T07:29:57;6.70;99.90
935;DHT22;454;53.254;10.400;2024-03-25T07:32:22;6.60;99.90
935;DHT22;454;53.254;10.400;2024-03-25T07:34:50;6.70;99.90
935;DHT22;454;53.254;10.400;2024-03-25T07:37:15;6.60;99.90
935;DHT22;454;53.254;10.400;2024-03-25T07:39:41;6.70;99.90
935;DHT22;454;53.254;10.400;2024-03-25T07:42:07;6.60;99.90
935;DHT22;454;53.254;10.400;2024-03-25T07:44:33;6.50;99.90
935;DHT22;454;53.254;10.400;2024-03-25T07:46:59;6.50;99.90
935;DHT22;454;53.254;10.400;2024-03-25T07:49:24;6.60;99.90
935;DHT22;454;53.254;10.400;2024-03-25T07:51:51;6.70;99.90
935;DHT22;454;53.254;10.400;2024-03-25T07:54:17;6.80;99.90
935;DHT22;454;53.254;10.400;2024-03-25T07:56:43;6.80;99.90
935;DHT22;454;53.254;10.400;2024-03-25T07:59:09;6.90;99.90
935;DHT22;454;53.254;10.400;2024-03-25T08:01:35;6.90;99.90
935;DHT22;454;53.254;10.400;2024-03-25T08:04:00;7.00;99.90
935;DHT22;454;53.254;10.400;2024-03-25T08:06:27;7.00;99.90
935;DHT22;454;53.254;10.400;2024-03-25T08:08:54;7.10;99.90
935;DHT22;454;53.254;10.400;2024-03-25T08:11:19;7.10;99.90
935;DHT22;454;53.254;10.400;2024-03-25T08:13:45;7.10;99.90
935;DHT22;454;53.254;10.400;2024-03-25T08:16:11;7.10;99.90
935;DHT22;454;53.254;10.400;2024-03-25T08:18:37;7.10;99.90
935;DHT22;454;53.254;10.400;2024-03-25T08:21:03;7.10;99.90
935;DHT22;454;53.254;10.400;2024-03-25T08:23:29;7.20;99.90
935;DHT22;454;53.254;10.400;2024-03-25T08:25:56;7.20;99.90
935;DHT22;454;53.254;10.400;2024-03-25T08:28:22;7.20;99.90
935;DHT22;454;53.254;10.400;2024-03-25T08:30:48;7.20;99.90
935;DHT22;454;53.254;10.400;2024-03-25T08:33:13;7.20;99.90
935;DHT22;454;53.254;10.400;2024-03-25T08:35:39;7.30;99.90
935;DHT22;454;53.254;10.400;2024-03-25T08:38:05;7.40;99.90
935;DHT22;454;53.254;10.400;2024-03-25T08:40:31;7.50;99.90
935;DHT22;454;53.254;10.400;2024-03-25T08:42:58;7.60;99.90
935;DHT22;454;53.254;10.400;2024-03-25T08:45:24;7.70;99.90
935;DHT22;454;53.254;10.400;2024-03-25T08:47:50;7.90;99.90
935;DHT22;454;53.254;10.400;2024-03-25T08:50:15;8.00;99.90
935;DHT22;454;53.254;10.400;2024-03-25T08:52:41;8.00;99.90
935;DHT22;454;53.254;10.400;2024-03-25T08:55:07;8.10;99.90
935;DHT22;454;53.254;10.400;2024-03-25T08:57:33;8.10;99.90
935;DHT22;454;53.254;10.400;2024-03-25T09:00:00;8.10;99.90
935;DHT22;454;53.254;10.400;2024-03-25T09:02:26;8.10;99.90
935;DHT22;454;53.254;10.400;2024-03-25T09:04:52;8.10;99.90
935;DHT22;454;53.254;10.400;2024-03-25T09:07:18;8.10;99.90
935;DHT22;454;53.254;10.400;2024-03-25T09:09:44;8.10;99.90
935;DHT22;454;53.254;10.400;2024-03-25T09:12:33;8.10;99.90
935;DHT22;454;53.254;10.400;2024-03-25T09:15:01;8.20;99.90
935;DHT22;454;53.254;10.400;2024-03-25T09:17:26;8.20;99.90
935;DHT22;454;53.254;10.400;2024-03-25T09:19:52;8.40;99.90
935;DHT22;454;53.254;10.400;2024-03-25T09:22:18;8.40;99.90
935;DHT22;454;53.254;10.400;2024-03-25T09:24:44;8.50;99.90
935;DHT22;454;53.254;10.400;2024-03-25T09:27:10;8.50;99.90
935;DHT22;454;53.254;10.400;2024-03-25T09:29:35;8.70;99.90
935;DHT22;454;53.254;10.400;2024-03-25T09:32:03;8.80;99.90
935;DHT22;454;53.254;10.400;2024-03-25T09:34:29;8.90;99.90
935;DHT22;454;53.254;10.400;2024-03-25T09:36:55;9.00;99.90
935;DHT22;454;53.254;10.400;2024-03-25T09:39:21;9.00;99.90
935;DHT22;454;53.254;10.400;2024-03-25T09:41:48;8.90;99.90
935;DHT22;454;53.254;10.400;2024-03-25T09:44:16;8.90;99.90
935;DHT22;454;53.254;10.400;2024-03-25T09:46:43;9.10;99.90
935;DHT22;454;53.254;10.400;2024-03-25T09:49:10;9.20;99.90
935;DHT22;454;53.254;10.400;2024-03-25T09:51:36;9.10;99.90
935;DHT22;454;53.254;10.400;2024-03-25T09:54:02;9.00;99.90
935;DHT22;454;53.254;10.400;2024-03-25T09:58:55;7.50;99.90
935;DHT22;454;53.254;10.400;2024-03-25T10:01:21;8.90;99.90
935;DHT22;454;53.254;10.400;2024-03-25T10:03:47;8.90;99.90
935;DHT22;454;53.254;10.400;2024-03-25T10:06:14;9.00;99.90
935;DHT22;454;53.254;10.400;2024-03-25T10:08:40;9.10;99.90
935;DHT22;454;53.254;10.400;2024-03-25T10:11:05;9.20;99.90
935;DHT22;454;53.254;10.400;2024-03-25T10:13:31;9.40;99.90
935;DHT22;454;53.254;10.400;2024-03-25T10:15:57;9.40;99.90
935;DHT22;454;53.254;10.400;2024-03-25T10:18:23;9.40;99.90
935;DHT22;454;53.254;10.400;2024-03-25T10:20:49;9.40;99.90
935;DHT22;454;53.254;10.400;2024-03-25T10:23:20;9.50;99.90
935;DHT22;454;53.254;10.400;2024-03-25T10:25:47;9.50;99.90
935;DHT22;454;53.254;10.400;2024-03-25T10:28:13;9.70;99.90
935;DHT22;454;53.254;10.400;2024-03-25T10:30:40;9.60;99.90
935;DHT22;454;53.254;10.400;2024-03-25T10:33:08;9.60;99.90
935;DHT22;454;53.254;10.400;2024-03-25T10:35:35;9.60;99.90
935;DHT22;454;53.254;10.400;2024-03-25T10:38:03;9.60;99.90
935;DHT22;454;53.254;10.400;2024-03-25T10:40:32;9.60;99.90
935;DHT22;454;53.254;10.400;2024-03-25T10:43:01;9.60;99.90
935;DHT22;454;53.254;10.400;2024-03-25T10:45:29;9.60;99.90
935;DHT22;454;53.254;10.400;2024-03-25T10:47:57;9.60;99.90
935;DHT22;454;53.254;10.400;2024-03-25T10:50:26;9.50;99.90
935;DHT22;454;53.254;10.400;2024-03-25T10:52:54;9.50;99.90
935;DHT22;454;53.254;10.400;2024-03-25T10:55:21;9.50;99.90
935;DHT22;454;53.254;10.400;2024-03-25T10:57:48;9.50;99.90
935;DHT22;454;53.254;10.400;2024-03-25T11:00:15;9.50;99.90
935;DHT22;454;53.254;10.400;2024-03-25T11:02:42;9.40;99.90
935;DHT22;454;53.254;10.400;2024-03-25T11:05:09;9.30;99.90
935;DHT22;454;53.254;10.400;2024-03-25T11:07:36;9.20;99.90
935;DHT22;454;53.254;10.400;2024-03-25T11:10:06;9.00;99.90
935;DHT22;454;53.254;10.400;2024-03-25T11:12:34;8.90;99.90
935;DHT22;454;53.254;10.400;2024-03-25T11:15:02;9.00;99.90
935;DHT22;454;53.254;10.400;2024-03-25T11:17:29;9.20;99.90
935;DHT22;454;53.254;10.400;2024-03-25T11:20:05;9.30;99.90
935;DHT22;454;53.254;10.400;2024-03-25T11:22:32;9.20;99.90
935;DHT22;454;53.254;10.400;2024-03-25T11:25:05;9.30;99.90
935;DHT22;454;53.254;10.400;2024-03-25T11:27:33;9.20;99.90
935;DHT22;454;53.254;10.400;2024-03-25T11:29:59;9.20;99.90
935;DHT22;454;53.254;10.400;2024-03-25T11:32:26;9.20;99.90
935;DHT22;454;53.254;10.400;2024-03-25T11:34:53;9.30;99.90
935;DHT22;454;53.254;10.400;2024-03-25T11:37:18;9.10;99.90
935;DHT22;454;53.254;10.400;2024-03-25T11:39:44;9.10;99.90
935;DHT22;454;53.254;10.400;2024-03-25T11:42:10;9.20;99.90
935;DHT22;454;53.254;10.400;2024-03-25T11:44:38;9.20;99.90
935;DHT22;454;53.254;10.400;2024-03-25T11:47:04;9.20;99.90
935;DHT22;454;53.254;10.400;2024-03-25T11:49:32;9.30;99.90
935;DHT22;454;53.254;10.400;2024-03-25T11:51:59;9.30;99.90
935;DHT22;454;53.254;10.400;2024-03-25T11:54:27;9.20;99.90
935;DHT22;454;53.254;10.400;2024-03-25T11:56:54;9.20;99.90
935;DHT22;454;53.254;10.400;2024-03-25T11:59:20;9.20;99.90
935;DHT22;454;53.254;10.400;2024-03-25T12:01:46;9.20;99.90
935;DHT22;454;53.254;10.400;2024-03-25T12:04:15;9.30;99.90
935;DHT22;454;53.254;10.400;2024-03-25T12:06:43;9.40;99.90
935;DHT22;454;53.254;10.400;2024-03-25T12:09:10;9.50;99.90
935;DHT22;454;53.254;10.400;2024-03-25T12:11:54;9.50;99.90
935;DHT22;454;53.254;10.400;2024-03-25T12:14:21;9.60;99.90
935;DHT22;454;53.254;10.400;2024-03-25T12:16:47;9.60;99.90
935;DHT22;454;53.254;10.400;2024-03-25T12:19:14;9.60;99.90
935;DHT22;454;53.254;10.400;2024-03-25T12:21:40;9.60;99.90
935;DHT22;454;53.254;10.400;2024-03-25T12:24:07;9.70;99.90
935;DHT22;454;53.254;10.400;2024-03-25T12:26:34;9.70;99.90
935;DHT22;454;53.254;10.400;2024-03-25T12:29:00;9.80;99.90
935;DHT22;454;53.254;10.400;2024-03-25T12:31:25;10.10;99.90
935;DHT22;454;53.254;10.400;2024-03-25T12:33:51;10.40;99.90
935;DHT22;454;53.254;10.400;2024-03-25T12:38:43;10.70;99.90
935;DHT22;454;53.254;10.400;2024-03-25T12:41:11;10.90;99.90
935;DHT22;454;53.254;10.400;2024-03-25T12:43:42;11.00;99.90
935;DHT22;454;53.254;10.400;2024-03-25T12:46:08;10.70;99.90
935;DHT22;454;53.254;10.400;2024-03-25T12:51:00;11.10;99.90
935;DHT22;454;53.254;10.400;2024-03-25T12:53:26;10.50;99.90
935;DHT22;454;53.254;10.400;2024-03-25T12:55:52;10.40;99.90
935;DHT22;454;53.254;10.400;2024-03-25T12:58:19;10.30;99.90
935;DHT22;454;53.254;10.400;2024-03-25T13:00:45;10.20;99.90
935;DHT22;454;53.254;10.400;2024-03-25T13:03:11;10.10;99.90
935;DHT22;454;53.254;10.400;2024-03-25T13:05:38;10.10;99.90
935;DHT22;454;53.254;10.400;2024-03-25T13:10:30;10.00;99.90
935;DHT22;454;53.254;10.400;2024-03-25T13:12:56;10.00;99.90
935;DHT22;454;53.254;10.400;2024-03-25T13:15:23;9.90;99.90
935;DHT22;454;53.254;10.400;2024-03-25T13:17:49;9.60;99.90
935;DHT22;454;53.254;10.400;2024-03-25T13:20:15;9.40;99.90
935;DHT22;454;53.254;10.400;2024-03-25T13:22:41;9.30;99.90
935;DHT22;454;53.254;10.400;2024-03-25T13:25:07;9.30;99.90
935;DHT22;454;53.254;10.400;2024-03-25T13:27:33;9.50;99.90
935;DHT22;454;53.254;10.400;2024-03-25T13:29:59;9.70;99.90
935;DHT22;454;53.254;10.400;2024-03-25T13:32:26;9.80;99.90
935;DHT22;454;53.254;10.400;2024-03-25T13:34:52;9.80;99.90
935;DHT22;454;53.254;10.400;2024-03-25T13:37:18;9.80;99.90
935;DHT22;454;53.254;10.400;2024-03-25T13:42:10;9.70;99.90
935;DHT22;454;53.254;10.400;2024-03-25T13:44:36;9.70;99.90
935;DHT22;454;53.254;10.400;2024-03-25T13:47:02;9.60;99.90
935;DHT22;454;53.254;10.400;2024-03-25T13:49:29;9.70;99.90
935;DHT22;454;53.254;10.400;2024-03-25T13:51:57;9.70;99.90
935;DHT22;454;53.254;10.400;2024-03-25T13:54:23;9.70;99.90
935;DHT22;454;53.254;10.400;2024-03-25T13:56:48;9.80;99.90
935;DHT22;454;53.254;10.400;2024-03-25T13:59:14;9.70;99.90
935;DHT22;454;53.254;10.400;2024-03-25T14:01:40;9.70;99.90
935;DHT22;454;53.254;10.400;2024-03-25T14:04:06;9.70;99.90
935;DHT22;454;53.254;10.400;2024-03-25T14:06:33;9.60;99.90
935;DHT22;454;53.254;10.400;2024-03-25T14:08:59;9.60;99.90
935;DHT22;454;53.254;10.400;2024-03-25T14:11:25;9.60;99.90
935;DHT22;454;53.254;10.400;2024-03-25T14:13:51;9.60;99.90
935;DHT22;454;53.254;10.400;2024-03-25T14:16:17;9.60;99.90
935;DHT22;454;53.254;10.400;2024-03-25T14:18:42;9.70;99.90
935;DHT22;454;53.254;10.400;2024-03-25T14:21:08;9.80;99.90
935;DHT22;454;53.254;10.400;2024-03-25T14:23:35;9.80;99.90
935;DHT22;454;53.254;10.400;2024-03-25T14:26:01;9.80;99.90
935;DHT22;454;53.254;10.400;2024-03-25T14:28:27;9.70;99.90
935;DHT22;454;53.254;10.400;2024-03-25T14:30:53;9.70;99.90
935;DHT22;454;53.254;10.400;2024-03-25T14:33:19;9.70;99.90
935;DHT22;454;53.254;10.400;2024-03-25T14:35:44;9.70;99.90
935;DHT22;454;53.254;10.400;2024-03-25T14:38:10;9.70;99.90
935;DHT22;454;53.254;10.400;2024-03-25T14:40:39;9.60;99.90
935;DHT22;454;53.254;10.400;2024-03-25T14:43:05;9.60;99.90
935;DHT22;454;53.254;10.400;2024-03-25T14:45:31;9.50;99.90
935;DHT22;454;53.254;10.400;2024-03-25T14:47:56;9.30;99.90
935;DHT22;454;53.254;10.400;2024-03-25T14:50:22;9.40;99.90
935;DHT22;454;53.254;10.400;2024-03-25T14:52:48;9.40;99.90
935;DHT22;454;53.254;10.400;2024-03-25T14:55:14;9.40;99.90
935;DHT22;454;53.254;10.400;2024-03-25T14:57:41;9.40;99.90
935;DHT22;454;53.254;10.400;2024-03-25T15:00:08;9.40;99.90
935;DHT22;454;53.254;10.400;2024-03-25T15:02:34;9.50;99.90
935;DHT22;454;53.254;10.400;2024-03-25T15:05:00;9.70;99.90
935;DHT22;454;53.254;10.400;2024-03-25T15:07:26;9.80;99.90
935;DHT22;454;53.254;10.400;2024-03-25T15:09:52;9.80;99.90
935;DHT22;454;53.254;10.400;2024-03-25T15:12:18;9.90;99.90
935;DHT22;454;53.254;10.400;2024-03-25T15:14:45;10.00;99.90
935;DHT22;454;53.254;10.400;2024-03-25T15:17:12;10.10;99.90
935;DHT22;454;53.254;10.400;2024-03-25T15:19:38;10.20;99.90
935;DHT22;454;53.254;10.400;2024-03-25T15:22:04;10.30;99.90
935;DHT22;454;53.254;10.400;2024-03-25T15:24:30;10.40;99.90
935;DHT22;454;53.254;10.400;2024-03-25T15:26:56;10.40;99.90
935;DHT22;454;53.254;10.400;2024-03-25T15:29:21;10.30;99.90
935;DHT22;454;53.254;10.400;2024-03-25T15:31:49;10.30;99.90
935;DHT22;454;53.254;10.400;2024-03-25T15:34:14;10.20;99.90
935;DHT22;454;53.254;10.400;2024-03-25T15:36:40;10.10;99.90
935;DHT22;454;53.254;10.400;2024-03-25T15:39:06;10.00;99.90
935;DHT22;454;53.254;10.400;2024-03-25T15:41:32;10.00;99.90
935;DHT22;454;53.254;10.400;2024-03-25T15:43:58;9.90;99.90
935;DHT22;454;53.254;10.400;2024-03-25T15:46:23;9.90;99.90
935;DHT22;454;53.254;10.400;2024-03-25T15:48:51;9.90;99.90
935;DHT22;454;53.254;10.400;2024-03-25T15:51:16;9.90;99.90
935;DHT22;454;53.254;10.400;2024-03-25T15:53:43;9.80;99.90
935;DHT22;454;53.254;10.400;2024-03-25T15:56:09;9.90;99.90
935;DHT22;454;53.254;10.400;2024-03-25T15:58:35;9.90;99.90
935;DHT22;454;53.254;10.400;2024-03-25T16:01:00;9.80;99.90
935;DHT22;454;53.254;10.400;2024-03-25T16:03:26;9.80;99.90
935;DHT22;454;53.254;10.400;2024-03-25T16:05:54;9.80;99.90
935;DHT22;454;53.254;10.400;2024-03-25T16:08:19;9.80;99.90
935;DHT22;454;53.254;10.400;2024-03-25T16:10:45;9.80;99.90
935;DHT22;454;53.254;10.400;2024-03-25T16:13:11;9.70;99.90
935;DHT22;454;53.254;10.400;2024-03-25T16:15:37;9.60;99.90
935;DHT22;454;53.254;10.400;2024-03-25T16:18:03;9.50;99.90
935;DHT22;454;53.254;10.400;2024-03-25T16:20:29;9.50;99.90
935;DHT22;454;53.254;10.400;2024-03-25T16:22:56;9.40;99.90
935;DHT22;454;53.254;10.400;2024-03-25T16:25:22;9.30;99.90
935;DHT22;454;53.254;10.400;2024-03-25T16:27:48;9.30;99.90
935;DHT22;454;53.254;10.400;2024-03-25T16:30:14;9.20;99.90
935;DHT22;454;53.254;10.400;2024-03-25T16:32:40;9.10;99.90
935;DHT22;454;53.254;10.400;2024-03-25T16:35:06;9.10;99.90
935;DHT22;454;53.254;10.400;2024-03-25T16:37:33;9.10;99.90
935;DHT22;454;53.254;10.400;2024-03-25T16:40:00;9.10;99.90
935;DHT22;454;53.254;10.400;2024-03-25T16:42:26;9.10;99.90
935;DHT22;454;53.254;10.400;2024-03-25T16:44:52;9.10;99.90
935;DHT22;454;53.254;10.400;2024-03-25T16:47:18;9.10;99.90
935;DHT22;454;53.254;10.400;2024-03-25T16:49:44;9.10;99.90
935;DHT22;454;53.254;10.400;2024-03-25T16:52:10;9.00;99.90
935;DHT22;454;53.254;10.400;2024-03-25T16:54:35;9.00;99.90
935;DHT22;454;53.254;10.400;2024-03-25T16:57:03;9.00;99.90
935;DHT22;454;53.254;10.400;2024-03-25T16:59:29;8.90;99.90
935;DHT22;454;53.254;10.400;2024-03-25T17:01:54;8.90;99.90
935;DHT22;454;53.254;10.400;2024-03-25T17:04:20;8.80;99.90
935;DHT22;454;53.254;10.400;2024-03-25T17:06:46;8.80;99.90
935;DHT22;454;53.254;10.400;2024-03-25T17:09:14;8.70;99.90
935;DHT22;454;53.254;10.400;2024-03-25T17:11:40;8.70;99.90
935;DHT22;454;53.254;10.400;2024-03-25T17:14:07;8.60;99.90
935;DHT22;454;53.254;10.400;2024-03-25T17:16:33;8.50;99.90
935;DHT22;454;53.254;10.400;2024-03-25T17:18:59;8.50;99.90
935;DHT22;454;53.254;10.400;2024-03-25T17:21:25;8.40;99.90
935;DHT22;454;53.254;10.400;2024-03-25T17:23:51;8.30;99.90
935;DHT22;454;53.254;10.400;2024-03-25T17:26:17;8.20;99.90
935;DHT22;454;53.254;10.400;2024-03-25T17:28:42;8.10;99.90
935;DHT22;454;53.254;10.400;2024-03-25T17:31:10;8.00;99.90
935;DHT22;454;53.254;10.400;2024-03-25T17:33:36;8.00;99.90
935;DHT22;454;53.254;10.400;2024-03-25T17:36:02;7.90;99.90
935;DHT22;454;53.254;10.400;2024-03-25T17:38:28;7.80;99.90
935;DHT22;454;53.254;10.400;2024-03-25T17:40:54;7.70;99.90
935;DHT22;454;53.254;10.400;2024-03-25T17:43:20;7.60;99.90
935;DHT22;454;53.254;10.400;2024-03-25T17:45:46;7.60;99.90
935;DHT22;454;53.254;10.400;2024-03-25T17:48:13;7.50;99.90
935;DHT22;454;53.254;10.400;2024-03-25T17:50:38;7.30;99.90
935;DHT22;454;53.254;10.400;2024-03-25T17:53:04;7.20;99.90
935;DHT22;454;53.254;10.400;2024-03-25T17:55:30;7.20;99.90
935;DHT22;454;53.254;10.400;2024-03-25T17:57:56;7.10;99.90
935;DHT22;454;53.254;10.400;2024-03-25T18:00:22;7.00;99.90
935;DHT22;454;53.254;10.400;2024-03-25T18:02:47;7.00;99.90
935;DHT22;454;53.254;10.400;2024-03-25T18:05:15;6.90;99.90
935;DHT22;454;53.254;10.400;2024-03-25T18:07:40;6.80;99.90
935;DHT22;454;53.254;10.400;2024-03-25T18:10:07;6.80;99.90
935;DHT22;454;53.254;10.400;2024-03-25T18:12:32;6.70;99.90
935;DHT22;454;53.254;10.400;2024-03-25T18:14:58;6.60;99.90
935;DHT22;454;53.254;10.400;2024-03-25T18:17:24;6.60;99.90
935;DHT22;454;53.254;10.400;2024-03-25T18:19:50;6.60;99.90
935;DHT22;454;53.254;10.400;2024-03-25T18:22:17;6.50;99.90
935;DHT22;454;53.254;10.400;2024-03-25T18:24:43;6.50;99.90
935;DHT22;454;53.254;10.400;2024-03-25T18:27:09;6.40;99.90
935;DHT22;454;53.254;10.400;2024-03-25T18:29:35;6.30;99.90
935;DHT22;454;53.254;10.400;2024-03-25T18:32:01;6.30;99.90
935;DHT22;454;53.254;10.400;2024-03-25T18:34:26;6.20;99.90
935;DHT22;454;53.254;10.400;2024-03-25T18:36:52;6.20;99.90
935;DHT22;454;53.254;10.400;2024-03-25T18:39:19;6.10;99.90
935;DHT22;454;53.254;10.400;2024-03-25T18:41:45;6.10;99.90
935;DHT22;454;53.254;10.400;2024-03-25T18:44:11;6.00;99.90
935;DHT22;454;53.254;10.400;2024-03-25T18:46:37;6.00;99.90
935;DHT22;454;53.254;10.400;2024-03-25T18:49:03;5.90;99.90
935;DHT22;454;53.254;10.400;2024-03-25T18:51:28;5.90;99.90
935;DHT22;454;53.254;10.400;2024-03-25T18:53:54;5.80;99.90
935;DHT22;454;53.254;10.400;2024-03-25T18:56:21;5.80;99.90
935;DHT22;454;53.254;10.400;2024-03-25T18:58:47;5.70;99.90
935;DHT22;454;53.254;10.400;2024-03-25T19:01:13;5.70;99.90
935;DHT22;454;53.254;10.400;2024-03-25T19:03:39;5.70;99.90
935;DHT22;454;53.254;10.400;2024-03-25T19:06:05;5.60;99.90
935;DHT22;454;53.254;10.400;2024-03-25T19:08:31;5.60;99.90
935;DHT22;454;53.254;10.400;2024-03-25T19:10:56;5.60;99.90
935;DHT22;454;53.254;10.400;2024-03-25T19:13:25;5.60;99.90
935;DHT22;454;53.254;10.400;2024-03-25T19:15:50;5.60;99.90
935;DHT22;454;53.254;10.400;2024-03-25T19:18:16;5.50;99.90
935;DHT22;454;53.254;10.400;2024-03-25T19:20:42;5.50;99.90
935;DHT22;454;53.254;10.400;2024-03-25T19:23:08;5.50;99.90
935;DHT22;454;53.254;10.400;2024-03-25T19:25:34;5.50;99.90
935;DHT22;454;53.254;10.400;2024-03-25T19:27:59;5.50;99.90
935;DHT22;454;53.254;10.400;2024-03-25T19:30:27;5.50;99.90
935;DHT22;454;53.254;10.400;2024-03-25T19:32:53;5.50;99.90
935;DHT22;454;53.254;10.400;2024-03-25T19:35:19;5.50;99.90
935;DHT22;454;53.254;10.400;2024-03-25T19:37:44;5.50;99.90
935;DHT22;454;53.254;10.400;2024-03-25T19:40:10;5.40;99.90
935;DHT22;454;53.254;10.400;2024-03-25T19:42:36;5.40;99.90
935;DHT22;454;53.254;10.400;2024-03-25T19:45:02;5.40;99.90
935;DHT22;454;53.254;10.400;2024-03-25T19:47:29;5.40;99.90
935;DHT22;454;53.254;10.400;2024-03-25T19:49:55;5.30;99.90
935;DHT22;454;53.254;10.400;2024-03-25T19:52:21;5.30;99.90
935;DHT22;454;53.254;10.400;2024-03-25T19:54:47;5.30;99.90
935;DHT22;454;53.254;10.400;2024-03-25T19:57:13;5.30;99.90
935;DHT22;454;53.254;10.400;2024-03-25T19:59:39;5.30;99.90
935;DHT22;454;53.254;10.400;2024-03-25T20:02:06;5.30;99.90
935;DHT22;454;53.254;10.400;2024-03-25T20:04:33;5.30;99.90
935;DHT22;454;53.254;10.400;2024-03-25T20:06:59;5.30;99.90
935;DHT22;454;53.254;10.400;2024-03-25T20:09:24;5.30;99.90
935;DHT22;454;53.254;10.400;2024-03-25T20:11:50;5.30;99.90
935;DHT22;454;53.254;10.400;2024-03-25T20:14:16;5.30;99.90
935;DHT22;454;53.254;10.400;2024-03-25T20:16:42;5.20;99.90
935;DHT22;454;53.254;10.400;2024-03-25T20:19:09;5.20;99.90
935;DHT22;454;53.254;10.400;2024-03-25T20:21:36;5.20;99.90
935;DHT22;454;53.254;10.400;2024-03-25T20:24:02;5.10;99.90
935;DHT22;454;53.254;10.400;2024-03-25T20:26:28;5.10;99.90
935;DHT22;454;53.254;10.400;2024-03-25T20:28:54;5.10;99.90
935;DHT22;454;53.254;10.400;2024-03-25T20:31:19;5.10;99.90
935;DHT22;454;53.254;10.400;2024-03-25T20:33:45;5.10;99.90
935;DHT22;454;53.254;10.400;2024-03-25T20:36:11;5.00;99.90
935;DHT22;454;53.254;10.400;2024-03-25T20:38:38;5.00;99.90
935;DHT22;454;53.254;10.400;2024-03-25T20:41:04;5.00;99.90
935;DHT22;454;53.254;10.400;2024-03-25T20:43:30;4.90;99.90
935;DHT22;454;53.254;10.400;2024-03-25T20:45:56;4.90;99.90
935;DHT22;454;53.254;10.400;2024-03-25T20:48:21;4.80;99.90
935;DHT22;454;53.254;10.400;2024-03-25T20:50:47;4.70;99.90
935;DHT22;454;53.254;10.400;2024-03-25T20:53:13;4.70;99.90
935;DHT22;454;53.254;10.400;2024-03-25T20:55:40;4.70;99.90
935;DHT22;454;53.254;10.400;2024-03-25T20:58:06;4.60;99.90
935;DHT22;454;53.254;10.400;2024-03-25T21:00:32;4.60;99.90
935;DHT22;454;53.254;10.400;2024-03-25T21:02:58;4.40;99.90
935;DHT22;454;53.254;10.400;2024-03-25T21:05:23;4.50;99.90
935;DHT22;454;53.254;10.400;2024-03-25T21:07:49;4.50;99.90
935;DHT22;454;53.254;10.400;2024-03-25T21:10:16;4.40;99.90
935;DHT22;454;53.254;10.400;2024-03-25T21:12:43;4.40;99.90
935;DHT22;454;53.254;10.400;2024-03-25T21:15:09;4.30;99.90
935;DHT22;454;53.254;10.400;2024-03-25T21:17:35;4.30;99.90
935;DHT22;454;53.254;10.400;2024-03-25T21:20:00;4.30;99.90
935;DHT22;454;53.254;10.400;2024-03-25T21:22:26;4.20;99.90
935;DHT22;454;53.254;10.400;2024-03-25T21:24:52;4.20;99.90
935;DHT22;454;53.254;10.400;2024-03-25T21:27:18;4.20;99.90
935;DHT22;454;53.254;10.400;2024-03-25T21:29:45;4.20;99.90
935;DHT22;454;53.254;10.400;2024-03-25T21:32:11;4.10;99.90
935;DHT22;454;53.254;10.400;2024-03-25T21:34:37;4.10;99.90
935;DHT22;454;53.254;10.400;2024-03-25T21:37:03;4.10;99.90
935;DHT22;454;53.254;10.400;2024-03-25T21:39:28;4.00;99.90
935;DHT22;454;53.254;10.400;2024-03-25T21:41:54;3.90;99.90